createdAt,value
2022-10-19T00:00:47.558Z,13.10
2022-10-19T00:01:47.633Z,14.10
2022-10-19T00:02:47.575Z,14.20
2022-10-19T00:04:47.587Z,11.90
2022-10-19T00:05:47.596Z,12.00
2022-10-19T00:06:47.617Z,11.50
2022-10-19T00:07:47.654Z,10.70
2022-10-19T00:08:47.619Z,10.60
2022-10-19T00:09:47.619Z,10.40
2022-10-19T00:10:47.639Z,10.30
2022-10-19T00:11:47.648Z,9.70
2022-10-19T00:13:47.659Z,9.20
2022-10-19T00:14:47.660Z,9.50
2022-10-19T00:15:47.667Z,9.10
2022-10-19T00:16:47.698Z,8.10
2022-10-19T00:17:47.692Z,8.70
2022-10-19T00:18:47.700Z,8.90
2022-10-19T00:19:47.721Z,8.00
2022-10-19T00:20:47.721Z,8.50
2022-10-19T00:21:47.870Z,8.90
2022-10-19T00:22:47.763Z,8.40
2022-10-19T00:23:47.778Z,8.00
2022-10-19T00:24:47.783Z,7.70
2022-10-19T00:25:47.792Z,8.20
2022-10-19T00:26:47.836Z,6.50
2022-10-19T00:27:47.821Z,5.90
2022-10-19T00:28:47.907Z,5.70
2022-10-19T00:29:47.854Z,5.40
2022-10-19T00:31:47.884Z,5.30
2022-10-19T00:32:47.894Z,5.30
2022-10-19T00:33:47.895Z,5.50
2022-10-19T00:34:47.914Z,5.40
2022-10-19T00:35:47.926Z,5.70
2022-10-19T00:36:47.957Z,5.10
2022-10-19T00:37:47.957Z,5.20
2022-10-19T00:38:47.967Z,5.20
2022-10-19T00:39:48.025Z,5.30
2022-10-19T00:40:48.004Z,5.50
2022-10-19T00:41:48.011Z,4.60
2022-10-19T00:42:48.014Z,5.10
2022-10-19T00:43:48.027Z,4.60
2022-10-19T00:44:48.038Z,4.90
2022-10-19T00:45:48.038Z,4.30
2022-10-19T00:46:48.087Z,4.80
2022-10-19T00:47:48.076Z,6.10
2022-10-19T00:49:48.104Z,6.80
2022-10-19T00:50:48.121Z,6.20
2022-10-19T00:51:48.139Z,6.50
2022-10-19T00:52:48.151Z,7.00
2022-10-19T00:53:48.149Z,6.40
2022-10-19T00:54:48.172Z,6.60
2022-10-19T00:55:48.180Z,6.00
2022-10-19T00:56:48.210Z,6.10
2022-10-19T00:57:48.218Z,6.10
2022-10-19T00:58:48.222Z,6.50
2022-10-19T00:59:55.254Z,6.20
2022-10-19T01:00:48.306Z,6.20
2022-10-19T01:01:48.286Z,6.20
2022-10-19T01:02:48.288Z,5.10
2022-10-19T01:03:48.299Z,6.00
2022-10-19T01:04:48.338Z,5.90
2022-10-19T01:05:48.327Z,5.40
2022-10-19T01:06:48.419Z,5.50
2022-10-19T01:07:48.369Z,5.40
2022-10-19T01:08:48.380Z,5.20
2022-10-19T01:09:48.400Z,4.80
2022-10-19T01:10:48.419Z,5.00
2022-10-19T01:11:48.441Z,5.20
2022-10-19T01:12:48.503Z,5.20
2022-10-19T01:13:48.451Z,5.20
2022-10-19T01:14:48.468Z,5.40
2022-10-19T01:15:48.500Z,5.20
2022-10-19T01:16:48.516Z,5.00
2022-10-19T01:17:48.488Z,5.10
2022-10-19T01:18:48.491Z,5.00
2022-10-19T01:19:48.499Z,4.90
2022-10-19T01:20:48.521Z,5.20
2022-10-19T01:21:48.530Z,5.70
2022-10-19T01:22:48.543Z,5.10
2022-10-19T01:23:48.543Z,4.70
2022-10-19T01:24:48.583Z,4.80
2022-10-19T01:25:48.554Z,5.30
2022-10-19T01:26:48.592Z,4.90
2022-10-19T01:27:48.591Z,4.90
2022-10-19T01:28:48.708Z,5.10
2022-10-19T01:29:48.614Z,4.60
2022-10-19T01:30:48.618Z,4.80
2022-10-19T01:31:48.645Z,4.70
2022-10-19T01:32:48.645Z,4.30
2022-10-19T01:33:48.679Z,4.40
2022-10-19T01:34:48.661Z,4.20
2022-10-19T01:35:48.666Z,4.80
2022-10-19T01:36:48.716Z,4.60
2022-10-19T01:37:48.694Z,5.10
2022-10-19T01:38:48.726Z,4.80
2022-10-19T01:39:49.892Z,4.80
2022-10-19T01:40:48.737Z,4.20
2022-10-19T01:41:48.769Z,4.00
2022-10-19T01:42:48.828Z,4.00
2022-10-19T01:43:48.778Z,4.60
2022-10-19T01:44:48.798Z,4.00
2022-10-19T01:45:48.818Z,4.30
2022-10-19T01:46:48.847Z,4.30
2022-10-19T01:47:48.849Z,4.50
2022-10-19T01:48:48.860Z,4.40
2022-10-19T01:49:48.886Z,5.30
2022-10-19T01:50:48.899Z,4.50
2022-10-19T01:51:48.978Z,4.40
2022-10-19T01:52:48.954Z,4.80
2022-10-19T01:53:48.969Z,4.40
2022-10-19T01:54:48.981Z,4.20
2022-10-19T01:55:49.001Z,4.00
2022-10-19T01:56:49.033Z,3.90
2022-10-19T01:57:49.042Z,3.80
2022-10-19T01:58:49.052Z,3.80
2022-10-19T01:59:49.081Z,3.60
2022-10-19T02:00:49.170Z,3.20
2022-10-19T02:01:49.136Z,3.30
2022-10-19T02:02:49.133Z,3.00
2022-10-19T02:03:49.168Z,2.70
2022-10-19T02:04:49.175Z,3.10
2022-10-19T02:05:49.208Z,2.80
2022-10-19T02:06:49.243Z,3.10
2022-10-19T02:07:49.245Z,3.20
2022-10-19T02:08:49.270Z,3.10
2022-10-19T02:09:49.303Z,3.00
2022-10-19T02:10:49.323Z,3.40
2022-10-19T02:11:50.501Z,3.20
2022-10-19T02:12:49.384Z,3.10
2022-10-19T02:13:49.417Z,3.40
2022-10-19T02:14:49.436Z,3.90
2022-10-19T02:15:49.466Z,3.80
2022-10-19T02:16:49.497Z,3.20
2022-10-19T02:17:49.517Z,3.60
2022-10-19T02:18:49.527Z,3.20
2022-10-19T02:19:49.548Z,3.00
2022-10-19T02:20:49.576Z,2.70
2022-10-19T02:21:49.625Z,3.00
2022-10-19T02:22:49.628Z,3.70
2022-10-19T02:23:51.890Z,3.90
2022-10-19T02:24:49.689Z,4.10
2022-10-19T02:25:49.709Z,4.00
2022-10-19T02:26:49.767Z,3.50
2022-10-19T02:27:49.769Z,3.80
2022-10-19T02:28:49.799Z,3.60
2022-10-19T02:29:49.816Z,4.00
2022-10-19T02:30:49.841Z,5.20
2022-10-19T02:31:49.870Z,5.40
2022-10-19T02:32:49.890Z,4.60
2022-10-19T02:33:49.911Z,5.10
2022-10-19T02:34:49.949Z,4.70
2022-10-19T02:35:49.977Z,4.70
2022-10-19T02:36:50.024Z,5.10
2022-10-19T02:37:50.034Z,4.40
2022-10-19T02:38:50.068Z,4.90
2022-10-19T02:39:50.092Z,5.20
2022-10-19T02:40:50.126Z,5.20
2022-10-19T02:41:50.161Z,5.20
2022-10-19T02:42:50.174Z,6.10
2022-10-19T02:43:50.211Z,5.80
2022-10-19T02:44:50.245Z,5.90
2022-10-19T02:45:50.274Z,6.50
2022-10-19T02:46:50.325Z,5.80
2022-10-19T02:47:50.342Z,5.60
2022-10-19T02:48:50.374Z,5.70
2022-10-19T02:49:50.406Z,5.40
2022-10-19T02:50:50.435Z,5.50
2022-10-19T02:51:50.482Z,5.20
2022-10-19T02:52:50.495Z,4.80
2022-10-19T02:53:50.526Z,5.40
2022-10-19T02:54:50.557Z,5.00
2022-10-19T02:55:50.609Z,5.10
2022-10-19T02:56:50.626Z,4.90
2022-10-19T02:57:50.637Z,5.20
2022-10-19T02:58:50.679Z,5.10
2022-10-19T02:59:50.699Z,5.30
2022-10-19T03:00:50.784Z,5.70
2022-10-19T03:01:50.776Z,5.30
2022-10-19T03:02:50.799Z,5.20
2022-10-19T03:03:50.828Z,5.40
2022-10-19T03:04:50.872Z,6.30
2022-10-19T03:05:50.899Z,5.60
2022-10-19T03:06:50.949Z,5.90
2022-10-19T03:07:50.960Z,5.70
2022-10-19T03:08:50.999Z,6.10
2022-10-19T03:09:51.030Z,5.60
2022-10-19T03:10:51.069Z,5.00
2022-10-19T03:11:51.110Z,5.90
2022-10-19T03:12:51.130Z,5.60
2022-10-19T03:13:51.182Z,5.80
2022-10-19T03:14:51.192Z,6.30
2022-10-19T03:15:51.230Z,5.60
2022-10-19T03:16:51.271Z,5.90
2022-10-19T03:17:51.293Z,6.40
2022-10-19T03:18:51.331Z,5.50
2022-10-19T03:19:51.353Z,5.60
2022-10-19T03:20:51.392Z,5.70
2022-10-19T03:21:51.433Z,5.80
2022-10-19T03:23:51.463Z,5.90
2022-10-19T03:24:51.506Z,5.00
2022-10-19T03:25:51.536Z,5.20
2022-10-19T03:26:51.579Z,5.50
2022-10-19T03:27:51.591Z,6.50
2022-10-19T03:28:51.639Z,5.60
2022-10-19T03:29:51.645Z,5.20
2022-10-19T03:30:51.674Z,5.10
2022-10-19T03:31:51.704Z,6.60
2022-10-19T03:32:51.726Z,5.40
2022-10-19T03:33:51.755Z,5.40
2022-10-19T03:34:51.785Z,5.70
2022-10-19T03:35:51.806Z,5.40
2022-10-19T03:36:51.846Z,5.20
2022-10-19T03:37:51.864Z,4.80
2022-10-19T03:38:51.888Z,4.80
2022-10-19T03:39:51.907Z,5.50
2022-10-19T03:40:51.937Z,5.20
2022-10-19T03:41:51.968Z,5.60
2022-10-19T03:42:51.989Z,5.40
2022-10-19T03:43:52.033Z,5.10
2022-10-19T03:44:52.039Z,5.10
2022-10-19T03:45:52.050Z,5.10
2022-10-19T03:46:52.098Z,5.60
2022-10-19T03:47:52.099Z,4.90
2022-10-19T03:48:52.130Z,5.10
2022-10-19T03:49:52.148Z,5.10
2022-10-19T03:50:52.169Z,5.30
2022-10-19T03:51:52.201Z,4.80
2022-10-19T03:52:52.257Z,5.80
2022-10-19T03:53:52.232Z,6.40
2022-10-19T03:54:52.255Z,9.10
2022-10-19T03:55:52.271Z,7.40
2022-10-19T03:56:52.311Z,7.20
2022-10-19T03:57:52.311Z,7.30
2022-10-19T03:58:52.342Z,7.50
2022-10-19T03:59:52.357Z,7.20
2022-10-19T04:00:52.424Z,7.70
2022-10-19T04:01:52.433Z,8.40
2022-10-19T04:02:52.650Z,8.30
2022-10-19T04:03:52.453Z,8.80
2022-10-19T04:04:52.483Z,9.10
2022-10-19T04:05:52.494Z,11.40
2022-10-19T04:06:52.535Z,11.80
2022-10-19T04:07:52.534Z,12.80
2022-10-19T04:08:52.574Z,13.80
2022-10-19T04:09:52.587Z,12.50
2022-10-19T04:10:52.625Z,12.30
2022-10-19T04:11:52.655Z,12.40
2022-10-19T04:12:53.886Z,11.50
2022-10-19T04:13:52.690Z,11.00
2022-10-19T04:14:57.250Z,11.00
2022-10-19T04:15:53.741Z,11.00
2022-10-19T04:16:52.777Z,12.60
2022-10-19T04:17:52.781Z,13.40
2022-10-19T04:18:52.815Z,13.80
2022-10-19T04:19:52.836Z,13.00
2022-10-19T04:20:52.859Z,12.20
2022-10-19T04:21:52.902Z,13.50
2022-10-19T04:22:52.917Z,13.80
2022-10-19T04:23:52.946Z,12.50
2022-10-19T04:24:52.968Z,13.20
2022-10-19T04:25:52.991Z,12.80
2022-10-19T04:26:53.029Z,12.30
2022-10-19T04:27:53.029Z,12.30
2022-10-19T04:28:53.118Z,11.40
2022-10-19T04:29:53.069Z,10.60
2022-10-19T04:30:53.090Z,10.50
2022-10-19T04:31:53.120Z,10.70
2022-10-19T04:32:53.121Z,10.10
2022-10-19T04:33:53.143Z,10.70
2022-10-19T04:34:53.173Z,10.10
2022-10-19T04:35:53.181Z,10.70
2022-10-19T04:36:53.222Z,11.60
2022-10-19T04:37:53.212Z,13.20
2022-10-19T04:38:53.243Z,10.60
2022-10-19T04:39:53.253Z,10.20
2022-10-19T04:40:53.283Z,10.20
2022-10-19T04:41:53.304Z,10.60
2022-10-19T04:42:53.313Z,10.40
2022-10-19T04:43:53.324Z,10.50
2022-10-19T04:44:53.344Z,11.50
2022-10-19T04:45:53.365Z,10.60
2022-10-19T04:46:53.410Z,10.40
2022-10-19T04:47:53.456Z,10.90
2022-10-19T04:48:53.426Z,11.70
2022-10-19T04:49:53.445Z,10.40
2022-10-19T04:50:53.473Z,10.00
2022-10-19T04:51:53.505Z,11.00
2022-10-19T04:52:53.513Z,15.20
2022-10-19T04:53:55.625Z,12.40
2022-10-19T04:54:54.549Z,13.80
2022-10-19T04:55:53.557Z,17.10
2022-10-19T04:56:53.587Z,12.90
2022-10-19T04:57:53.577Z,12.00
2022-10-19T04:58:53.599Z,14.30
2022-10-19T04:59:53.607Z,13.00
2022-10-19T05:00:53.684Z,12.00
2022-10-19T05:01:53.658Z,13.20
2022-10-19T05:02:53.650Z,12.60
2022-10-19T05:03:53.699Z,13.10
2022-10-19T05:04:53.680Z,13.60
2022-10-19T05:05:53.697Z,11.40
2022-10-19T05:06:53.729Z,9.30
2022-10-19T05:07:53.730Z,9.20
2022-10-19T05:08:53.757Z,10.00
2022-10-19T05:09:53.770Z,9.40
2022-10-19T05:10:53.790Z,8.80
2022-10-19T05:11:53.821Z,9.20
2022-10-19T05:12:53.831Z,9.20
2022-10-19T05:13:53.841Z,8.80
2022-10-19T05:14:53.869Z,8.60
2022-10-19T05:15:53.872Z,8.60
2022-10-19T05:16:53.902Z,8.30
2022-10-19T05:17:53.903Z,7.40
2022-10-19T05:18:53.934Z,7.80
2022-10-19T05:19:53.970Z,8.50
2022-10-19T05:20:53.983Z,8.10
2022-10-19T05:21:54.014Z,7.20
2022-10-19T05:22:54.034Z,7.00
2022-10-19T05:23:54.054Z,7.00
2022-10-19T05:24:57.363Z,7.40
2022-10-19T05:25:54.106Z,7.10
2022-10-19T05:26:54.150Z,6.90
2022-10-19T05:27:54.156Z,6.70
2022-10-19T05:28:54.223Z,6.80
2022-10-19T05:29:54.204Z,6.40
2022-10-19T05:30:54.229Z,7.10
2022-10-19T05:31:54.266Z,6.40
2022-10-19T05:32:54.291Z,6.20
2022-10-19T05:33:54.389Z,5.40
2022-10-19T05:34:54.328Z,5.20
2022-10-19T05:35:54.368Z,5.20
2022-10-19T05:36:54.388Z,4.90
2022-10-19T05:37:54.398Z,4.70
2022-10-19T05:38:54.429Z,4.60
2022-10-19T05:39:54.454Z,4.60
2022-10-19T05:40:54.487Z,4.40
2022-10-19T05:41:54.519Z,4.50
2022-10-19T05:42:54.539Z,3.90
2022-10-19T05:43:54.561Z,4.30
2022-10-19T05:44:54.606Z,4.50
2022-10-19T05:45:54.638Z,4.20
2022-10-19T05:46:54.687Z,4.50
2022-10-19T05:47:54.690Z,4.30
2022-10-19T05:48:54.721Z,4.80
2022-10-19T05:49:54.740Z,5.00
2022-10-19T05:50:54.771Z,5.00
2022-10-19T05:51:54.812Z,5.20
2022-10-19T05:52:54.831Z,5.50
2022-10-19T05:53:54.852Z,5.30
2022-10-19T05:54:54.892Z,5.30
2022-10-19T05:55:54.922Z,5.50
2022-10-19T05:56:54.973Z,5.40
2022-10-19T05:57:54.984Z,5.10
2022-10-19T05:58:55.027Z,5.10
2022-10-19T05:59:55.043Z,4.80
2022-10-19T06:00:55.082Z,5.20
2022-10-19T06:01:55.126Z,5.10
2022-10-19T06:02:59.028Z,8.50
2022-10-19T06:03:55.155Z,7.50
2022-10-19T06:04:55.185Z,11.60
2022-10-19T06:05:55.214Z,13.90
2022-10-19T06:06:55.264Z,15.40
2022-10-19T06:07:55.276Z,11.40
2022-10-19T06:08:55.316Z,9.10
2022-10-19T06:09:55.346Z,7.30
2022-10-19T06:10:55.384Z,5.30
2022-10-19T06:11:55.434Z,5.90
2022-10-19T06:12:55.457Z,5.30
2022-10-19T06:13:55.493Z,5.20
2022-10-19T06:14:55.537Z,6.20
2022-10-19T06:15:55.556Z,5.20
2022-10-19T06:16:55.617Z,4.90
2022-10-19T06:17:55.628Z,4.90
2022-10-19T06:18:55.668Z,5.20
2022-10-19T06:19:55.699Z,6.10
2022-10-19T06:20:55.748Z,6.10
2022-10-19T06:21:55.797Z,4.90
2022-10-19T06:22:55.822Z,5.50
2022-10-19T06:23:55.849Z,7.50
2022-10-19T06:24:55.889Z,8.20
2022-10-19T06:25:55.928Z,8.70
2022-10-19T06:26:55.987Z,8.90
2022-10-19T06:27:56.033Z,8.80
2022-10-19T06:28:56.042Z,8.70
2022-10-19T06:29:56.071Z,9.40
2022-10-19T06:30:56.161Z,8.40
2022-10-19T06:31:56.152Z,10.20
2022-10-19T06:32:56.219Z,9.40
2022-10-19T06:33:56.240Z,10.10
2022-10-19T06:34:56.732Z,9.80
2022-10-19T06:35:56.281Z,9.80
2022-10-19T06:36:56.341Z,9.60
2022-10-19T06:37:56.352Z,10.10
2022-10-19T06:38:56.394Z,9.90
2022-10-19T06:39:56.474Z,10.40
2022-10-19T06:40:56.463Z,10.20
2022-10-19T06:41:56.522Z,10.60
2022-10-19T06:42:56.541Z,11.60
2022-10-19T06:43:56.573Z,10.10
2022-10-19T06:44:56.603Z,9.90
2022-10-19T06:45:56.644Z,9.00
2022-10-19T06:46:56.692Z,9.30
2022-10-19T06:47:56.722Z,9.60
2022-10-19T06:48:56.757Z,8.60
2022-10-19T06:49:56.795Z,8.80
2022-10-19T06:50:56.816Z,9.30
2022-10-19T06:51:56.883Z,8.60
2022-10-19T06:52:56.886Z,8.30
2022-10-19T06:53:57.475Z,9.00
2022-10-19T06:54:56.946Z,8.90
2022-10-19T06:55:56.986Z,8.60
2022-10-19T06:56:57.027Z,8.40
2022-10-19T06:57:57.051Z,9.40
2022-10-19T06:58:57.067Z,9.20
2022-10-19T06:59:57.107Z,9.90
2022-10-19T07:00:57.246Z,10.00
2022-10-19T07:01:57.187Z,9.70
2022-10-19T07:02:57.198Z,9.40
2022-10-19T07:03:57.230Z,10.00
2022-10-19T07:04:57.249Z,10.00
2022-10-19T07:05:57.278Z,10.20
2022-10-19T07:06:57.319Z,11.20
2022-10-19T07:07:57.408Z,9.30
2022-10-19T07:08:57.360Z,11.30
2022-10-19T07:09:57.379Z,10.90
2022-10-19T07:10:57.400Z,11.00
2022-10-19T07:11:57.459Z,11.50
2022-10-19T07:12:57.513Z,11.90
2022-10-19T07:13:57.489Z,11.70
2022-10-19T07:14:57.511Z,12.90
2022-10-19T07:15:57.551Z,13.00
2022-10-19T07:16:57.589Z,14.40
2022-10-19T07:17:57.591Z,13.90
2022-10-19T07:18:57.603Z,13.50
2022-10-19T07:19:57.687Z,12.60
2022-10-19T07:20:57.662Z,14.50
2022-10-19T07:21:57.714Z,13.90
2022-10-19T07:22:57.713Z,12.10
2022-10-19T07:23:57.744Z,11.20
2022-10-19T07:24:57.763Z,10.50
2022-10-19T07:25:57.801Z,10.90
2022-10-19T07:26:57.843Z,11.60
2022-10-19T07:27:57.856Z,11.20
2022-10-19T07:28:57.893Z,10.90
2022-10-19T07:29:57.905Z,11.60
2022-10-19T07:30:57.927Z,12.60
2022-10-19T07:31:57.967Z,12.20
2022-10-19T07:32:57.966Z,12.60
2022-10-19T07:33:57.996Z,13.50
2022-10-19T07:34:58.006Z,13.10
2022-10-19T07:35:58.027Z,14.20
2022-10-19T07:36:58.054Z,13.50
2022-10-19T07:37:58.057Z,13.50
2022-10-19T07:38:58.077Z,13.40
2022-10-19T07:39:58.100Z,13.90
2022-10-19T07:40:58.109Z,13.20
2022-10-19T07:41:58.152Z,13.40
2022-10-19T07:42:58.148Z,13.10
2022-10-19T07:43:58.180Z,14.20
2022-10-19T07:44:58.189Z,14.60
2022-10-19T07:45:58.218Z,14.20
2022-10-19T07:46:58.249Z,14.70
2022-10-19T07:47:58.259Z,14.40
2022-10-19T07:48:58.269Z,14.60
2022-10-19T07:49:58.290Z,14.80
2022-10-19T07:50:58.311Z,15.30
2022-10-19T07:51:58.342Z,15.60
2022-10-19T07:52:58.341Z,15.80
2022-10-19T07:53:58.361Z,16.80
2022-10-19T07:54:58.380Z,19.40
2022-10-19T07:55:58.392Z,19.60
2022-10-19T07:56:58.423Z,20.10
2022-10-19T07:57:58.431Z,17.10
2022-10-19T07:58:58.442Z,17.90
2022-10-19T07:59:58.474Z,18.30
2022-10-19T08:00:58.473Z,19.50
2022-10-19T08:01:58.550Z,18.50
2022-10-19T08:03:19.314Z,20.30
2022-10-19T08:05:02.045Z,18.40
2022-10-19T08:05:58.543Z,17.30
2022-10-19T08:06:58.563Z,18.10
2022-10-19T08:07:58.564Z,16.90
2022-10-19T08:08:58.642Z,16.80
2022-10-19T08:09:58.585Z,16.80
2022-10-19T08:10:58.593Z,18.20
2022-10-19T08:11:58.627Z,17.20
2022-10-19T08:12:58.603Z,18.20
2022-10-19T08:13:58.639Z,17.00
2022-10-19T08:14:58.609Z,16.90
2022-10-19T08:15:58.624Z,18.70
2022-10-19T08:16:58.626Z,20.20
2022-10-19T08:17:58.635Z,19.20
2022-10-19T08:18:58.621Z,19.80
2022-10-19T08:19:58.626Z,19.60
2022-10-19T08:20:58.620Z,20.20
2022-10-19T08:21:58.627Z,18.10
2022-10-19T08:22:59.167Z,18.60
2022-10-19T08:23:58.638Z,18.20
2022-10-19T08:24:58.620Z,19.40
2022-10-19T08:25:58.621Z,19.80
2022-10-19T08:26:58.622Z,18.80
2022-10-19T08:27:58.632Z,17.90
2022-10-19T08:28:58.621Z,17.80
2022-10-19T08:29:58.630Z,17.60
2022-10-19T08:30:58.622Z,16.30
2022-10-19T08:31:58.636Z,15.60
2022-10-19T08:32:58.640Z,18.00
2022-10-19T08:33:58.632Z,17.60
2022-10-19T08:34:58.633Z,17.00
2022-10-19T08:35:58.634Z,17.10
2022-10-19T08:36:58.630Z,16.70
2022-10-19T08:37:58.824Z,16.20
2022-10-19T08:38:58.624Z,15.10
2022-10-19T08:39:58.640Z,13.90
2022-10-19T08:40:58.623Z,15.40
2022-10-19T08:41:58.632Z,15.80
2022-10-19T08:42:58.636Z,14.20
2022-10-19T08:43:58.613Z,14.80
2022-10-19T08:44:58.746Z,13.30
2022-10-19T08:45:58.605Z,13.30
2022-10-19T08:47:00.496Z,13.20
2022-10-19T08:47:58.594Z,12.80
2022-10-19T08:48:58.598Z,12.60
2022-10-19T08:49:58.587Z,12.70
2022-10-19T08:50:58.590Z,12.60
2022-10-19T08:51:58.578Z,12.60
2022-10-19T08:52:58.575Z,12.20
2022-10-19T08:53:58.578Z,12.40
2022-10-19T08:54:58.570Z,12.70
2022-10-19T08:55:59.782Z,13.40
2022-10-19T08:56:59.570Z,13.20
2022-10-19T08:57:58.600Z,11.10
2022-10-19T08:58:58.572Z,13.20
2022-10-19T08:59:58.572Z,13.30
2022-10-19T09:00:58.563Z,13.20
2022-10-19T09:01:58.560Z,13.30
2022-10-19T09:02:58.542Z,13.00
2022-10-19T09:03:58.837Z,13.70
2022-10-19T09:04:58.550Z,12.80
2022-10-19T09:05:58.533Z,13.70
2022-10-19T09:06:58.523Z,11.10
2022-10-19T09:07:58.523Z,12.10
2022-10-19T09:08:58.593Z,13.10
2022-10-19T09:09:58.526Z,12.20
2022-10-19T09:10:58.504Z,12.40
2022-10-19T09:11:58.494Z,11.60
2022-10-19T09:12:58.775Z,11.60
2022-10-19T09:14:05.217Z,11.90
2022-10-19T09:14:59.484Z,11.60
2022-10-19T09:15:58.463Z,11.60
2022-10-19T09:16:58.446Z,12.00
2022-10-19T09:17:58.446Z,12.50
2022-10-19T09:18:58.452Z,11.80
2022-10-19T09:19:58.427Z,12.10
2022-10-19T09:20:58.427Z,11.80
2022-10-19T09:21:58.424Z,12.10
2022-10-19T09:22:58.408Z,12.70
2022-10-19T09:23:58.412Z,12.70
2022-10-19T09:24:58.397Z,12.50
2022-10-19T09:25:58.413Z,13.20
2022-10-19T09:26:58.391Z,12.00
2022-10-19T09:27:58.447Z,11.70
2022-10-19T09:28:58.384Z,11.10
2022-10-19T09:29:58.383Z,12.20
2022-10-19T09:30:58.379Z,11.90
2022-10-19T09:32:58.362Z,11.60
2022-10-19T09:33:58.351Z,12.60
2022-10-19T09:34:58.343Z,13.20
2022-10-19T09:35:58.368Z,12.60
2022-10-19T09:36:58.361Z,12.90
2022-10-19T09:37:58.318Z,14.00
2022-10-19T09:38:58.311Z,13.10
2022-10-19T09:39:58.303Z,13.50
2022-10-19T09:40:58.293Z,11.90
2022-10-19T09:41:58.314Z,12.90
2022-10-19T09:42:58.277Z,13.10
2022-10-19T09:43:58.265Z,12.50
2022-10-19T09:44:58.252Z,12.80
2022-10-19T09:45:58.245Z,12.80
2022-10-19T09:46:58.246Z,13.20
2022-10-19T09:48:04.556Z,12.40
2022-10-19T09:48:59.225Z,12.90
2022-10-19T09:49:58.226Z,13.30
2022-10-19T09:50:58.225Z,13.30
2022-10-19T09:51:58.226Z,12.70
2022-10-19T09:52:58.215Z,12.50
2022-10-19T09:53:58.197Z,12.40
2022-10-19T09:54:58.187Z,13.40
2022-10-19T09:55:58.193Z,12.00
2022-10-19T09:56:58.187Z,12.00
2022-10-19T09:57:58.179Z,12.30
2022-10-19T09:58:58.179Z,11.50
2022-10-19T09:59:58.186Z,12.60
2022-10-19T10:00:58.160Z,12.60
2022-10-19T10:01:58.228Z,11.90
2022-10-19T10:02:58.140Z,12.30
2022-10-19T10:03:58.141Z,12.90
2022-10-19T10:04:58.131Z,11.80
2022-10-19T10:05:58.130Z,12.70
2022-10-19T10:06:58.122Z,12.50
2022-10-19T10:07:58.132Z,11.90
2022-10-19T10:08:58.206Z,12.60
2022-10-19T10:09:58.102Z,12.60
2022-10-19T10:10:58.092Z,13.40
2022-10-19T10:11:58.096Z,12.30
2022-10-19T10:12:58.101Z,12.10
2022-10-19T10:13:58.083Z,11.90
2022-10-19T10:14:58.074Z,12.00
2022-10-19T10:15:58.082Z,12.30
2022-10-19T10:16:58.055Z,11.70
2022-10-19T10:17:58.054Z,12.20
2022-10-19T10:18:58.034Z,12.00
2022-10-19T10:19:58.030Z,12.00
2022-10-19T10:21:58.005Z,11.70
2022-10-19T10:22:58.010Z,12.50
2022-10-19T10:23:57.986Z,11.50
2022-10-19T10:24:57.967Z,12.90
2022-10-19T10:25:57.956Z,12.00
2022-10-19T10:26:57.936Z,12.90
2022-10-19T10:27:57.951Z,11.40
2022-10-19T10:29:00.708Z,11.40
2022-10-19T10:29:57.921Z,10.80
2022-10-19T10:30:57.898Z,11.20
2022-10-19T10:31:57.899Z,11.10
2022-10-19T10:33:04.721Z,11.70
2022-10-19T10:34:06.483Z,11.20
2022-10-19T10:35:01.358Z,10.60
2022-10-19T10:35:57.859Z,11.70
2022-10-19T10:36:57.849Z,10.80
2022-10-19T10:37:57.830Z,10.70
2022-10-19T10:38:57.874Z,11.10
2022-10-19T10:40:00.485Z,10.60
2022-10-19T10:40:58.810Z,10.50
2022-10-19T10:41:57.802Z,11.30
2022-10-19T10:42:57.790Z,10.40
2022-10-19T10:44:00.760Z,10.50
2022-10-19T10:44:58.773Z,10.20
2022-10-19T10:45:57.774Z,10.80
2022-10-19T10:46:57.766Z,10.00
2022-10-19T10:47:57.803Z,11.20
2022-10-19T10:48:57.794Z,10.70
2022-10-19T10:49:57.753Z,9.40
2022-10-19T10:50:57.734Z,9.80
2022-10-19T10:51:57.726Z,9.60
2022-10-19T10:52:57.715Z,10.00
2022-10-19T10:53:57.726Z,9.30
2022-10-19T10:54:57.707Z,10.10
2022-10-19T10:55:57.686Z,10.40
2022-10-19T10:56:57.724Z,10.10
2022-10-19T10:57:57.668Z,10.40
2022-10-19T10:58:57.676Z,10.60
2022-10-19T10:59:57.665Z,10.00
2022-10-19T11:00:57.648Z,10.00
2022-10-19T11:01:57.668Z,10.90
2022-10-19T11:02:57.637Z,11.40
2022-10-19T11:03:57.619Z,11.20
2022-10-19T11:04:57.618Z,10.50
2022-10-19T11:05:57.589Z,9.80
2022-10-19T11:06:57.580Z,10.40
2022-10-19T11:07:57.559Z,10.00
2022-10-19T11:08:57.579Z,9.30
2022-10-19T11:09:57.521Z,9.90
2022-10-19T11:10:57.513Z,9.40
2022-10-19T11:11:57.482Z,9.80
2022-10-19T11:12:57.479Z,10.10
2022-10-19T11:13:57.451Z,10.20
2022-10-19T11:14:57.442Z,9.60
2022-10-19T11:15:57.431Z,10.30
2022-10-19T11:16:57.414Z,9.60
2022-10-19T11:17:57.393Z,9.60
2022-10-19T11:18:57.382Z,9.50
2022-10-19T11:19:57.354Z,8.80
2022-10-19T11:20:57.370Z,9.30
2022-10-19T11:21:57.334Z,10.10
2022-10-19T11:22:57.317Z,9.70
2022-10-19T11:23:57.294Z,8.80
2022-10-19T11:24:57.287Z,7.90
2022-10-19T11:25:57.266Z,8.70
2022-10-19T11:26:57.246Z,8.50
2022-10-19T11:27:57.229Z,8.90
2022-10-19T11:28:57.216Z,8.90
2022-10-19T11:29:57.196Z,8.80
2022-10-19T11:30:57.195Z,8.20
2022-10-19T11:31:57.158Z,9.10
2022-10-19T11:32:57.140Z,8.80
2022-10-19T11:33:57.121Z,8.70
2022-10-19T11:34:57.108Z,8.50
2022-10-19T11:35:57.098Z,8.10
2022-10-19T11:36:57.068Z,7.60
2022-10-19T11:38:18.388Z,7.90
2022-10-19T11:38:58.035Z,7.60
2022-10-19T11:39:57.008Z,8.10
2022-10-19T11:41:16.790Z,7.90
2022-10-19T11:41:57.961Z,7.40
2022-10-19T11:42:56.954Z,7.40
2022-10-19T11:43:56.931Z,7.60
2022-10-19T11:44:56.923Z,7.10
2022-10-19T11:45:56.913Z,7.70
2022-10-19T11:46:56.902Z,7.50
2022-10-19T11:47:56.892Z,7.80
2022-10-19T11:48:56.870Z,7.30
2022-10-19T11:49:56.908Z,6.80
2022-10-19T11:50:58.909Z,6.70
2022-10-19T11:51:57.804Z,7.10
2022-10-19T11:52:56.794Z,7.60
2022-10-19T11:53:56.773Z,6.80
2022-10-19T11:54:56.766Z,7.20
2022-10-19T11:55:56.754Z,6.90
2022-10-19T11:57:04.745Z,6.50
2022-10-19T11:57:57.696Z,6.90
2022-10-19T11:58:56.683Z,7.00
2022-10-19T12:00:03.718Z,7.30
2022-10-19T12:00:57.649Z,7.10
2022-10-19T12:01:56.674Z,6.80
2022-10-19T12:02:59.360Z,6.70
2022-10-19T12:03:57.579Z,7.10
2022-10-19T12:04:56.557Z,6.50
2022-10-19T12:05:56.539Z,6.80
2022-10-19T12:06:56.517Z,6.70
2022-10-19T12:07:56.503Z,5.60
2022-10-19T12:08:56.619Z,5.90
2022-10-19T12:09:56.475Z,6.80
2022-10-19T12:10:56.459Z,6.70
2022-10-19T12:11:56.452Z,6.20
2022-10-19T12:12:56.421Z,6.20
2022-10-19T12:13:56.406Z,6.30
2022-10-19T12:14:56.382Z,5.70
2022-10-19T12:15:56.389Z,6.40
2022-10-19T12:16:56.349Z,6.00
2022-10-19T12:17:56.313Z,5.40
2022-10-19T12:18:56.303Z,5.30
2022-10-19T12:19:56.280Z,5.00
2022-10-19T12:20:56.272Z,6.00
2022-10-19T12:21:56.253Z,5.00
2022-10-19T12:22:56.233Z,6.10
2022-10-19T12:23:56.214Z,5.60
2022-10-19T12:24:56.213Z,5.70
2022-10-19T12:25:56.196Z,5.50
2022-10-19T12:26:56.195Z,5.20
2022-10-19T12:27:56.164Z,5.30
2022-10-19T12:28:56.154Z,5.50
2022-10-19T12:29:56.126Z,5.00
2022-10-19T12:30:56.124Z,5.00
2022-10-19T12:31:56.109Z,5.40
2022-10-19T12:32:56.089Z,5.40
2022-10-19T12:33:56.074Z,5.50
2022-10-19T12:34:56.055Z,5.60
2022-10-19T12:35:56.028Z,6.00
2022-10-19T12:36:56.039Z,5.60
2022-10-19T12:37:55.998Z,6.30
2022-10-19T12:39:00.159Z,6.10
2022-10-19T12:39:55.970Z,5.90
2022-10-19T12:40:55.968Z,5.50
2022-10-19T12:41:55.959Z,5.40
2022-10-19T12:42:55.950Z,4.70
2022-10-19T12:43:55.920Z,5.50
2022-10-19T12:44:58.562Z,5.80
2022-10-19T12:45:55.901Z,5.40
2022-10-19T12:46:58.785Z,5.00
2022-10-19T12:47:55.891Z,5.50
2022-10-19T12:48:55.861Z,5.20
2022-10-19T12:49:55.845Z,5.20
2022-10-19T12:50:55.832Z,5.40
2022-10-19T12:51:55.810Z,5.00
2022-10-19T12:52:55.802Z,5.20
2022-10-19T12:53:55.763Z,5.10
2022-10-19T12:54:55.754Z,5.50
2022-10-19T12:55:55.731Z,4.30
2022-10-19T12:56:55.722Z,5.10
2022-10-19T12:57:55.705Z,4.80
2022-10-19T12:58:55.675Z,5.40
2022-10-19T13:00:02.783Z,5.50
2022-10-19T13:00:55.678Z,5.20
2022-10-19T13:01:55.614Z,4.80
2022-10-19T13:02:55.624Z,5.20
2022-10-19T13:03:55.575Z,4.90
2022-10-19T13:04:55.581Z,5.10
2022-10-19T13:05:55.536Z,4.80
2022-10-19T13:06:55.555Z,5.40
2022-10-19T13:07:55.536Z,4.60
2022-10-19T13:08:55.501Z,4.70
2022-10-19T13:09:55.457Z,4.80
2022-10-19T13:10:55.458Z,5.00
2022-10-19T13:11:55.416Z,5.10
2022-10-19T13:12:55.417Z,4.60
2022-10-19T13:13:55.385Z,5.70
2022-10-19T13:14:55.360Z,4.90
2022-10-19T13:15:55.338Z,4.30